Terminal Aerodrome Forecast
Issued by NWS Charleston, WV

Current Version | Previous Version | Text Only | Print | Product List | Glossary Off
Versions: 1 2 3 4 5 6 7 8 9 10 11 12 13 14 15 16 17 18 19 20 21 22 23 24 25 26

000
FTUS41 KRLX 020528
TAFHTS
TAF
KHTS 020528Z 0206/0306 VRB03KT 6SM BR SCT070
     FM020700 VRB03KT 3SM BR SCT100
     FM020930 VRB03KT 1/2SM FG VV002
     FM021400 23007KT P6SM BKN040
     FM022200 24009KT P6SM -SHRA VCTS OVC050CB=

USA.gov is the U.S. government's official web portal to all federal, state and local government web resources and services.